Hydes, MD (21082)

12:38 PM EDT on June 02, 2015 (GMT -0400)
Carroll Manor | | Change Station
CLOSE
Current Station
Personal Weather Station
Location: Baldwin, MD
Elevation: 548 ft
Nearby Weather Stations

Elev 548 ft 39.50 °N, 76.51 °W | Updated 40 seconds ago

Overcast
Overcast
54.9 °F
Feels Like 54.9 °F
N
0.0
Wind Variable Wind from NW
Gusts 0.0 mph

Today
High -- | Low -- °F
--% Chance of Precip.
Yesterday
High -- | Low -- °F
Precip. -- in
5:40 AM 8:27 PM
Full, 100% visible
Pressure 30.12 in
Visibility 3.0 miles
Clouds Mostly Cloudy 800 ft
Overcast 1400 ft
Dew Point 54 °F
Humidity 97%
Rainfall 0.17 in
Snow Depth Not available.
UV 1.0 out of 12
Pollen .20 out of 12
Air Quality Not available.
Flu Activity Sporadic
METAR KMTN 021550Z 00000KT 3SM DZ BKN008 OVC014 14/14 A3012

More Conditions Fewer Conditions

Pressure 30.12 in
Visibility 3.0 miles
Clouds Mostly Cloudy 800 ft
Overcast 1400 ft
Dew Point 54 °F
Humidity 97%
Rainfall 0.17 in
Snow Depth Not available.
UV 1.0 out of 12
Pollen .20 out of 12
Air Quality Not available.
Flu Activity Sporadic
METAR KMTN 021550Z 00000KT 3SM DZ BKN008 OVC014 14/14 A3012

More Conditions Fewer Conditions

10-Day Weather Forecast

Almanac

Astronomy

Jun. 02, 2015 Rise Set
Actual Time
Civil Twilight
Nautical Twilight
Astronomical Twilight
Moon
Length of Visible Light
Length of Day
Tomorrow will be .
, % of the Moon is Illuminated

Today's Extremes

State Highs State Lows

Community

WunderPhotos

Upload Photos

1,825,976 photos uploaded!

WunderBlogs® & News

Nearby

Air Quality

  Air Quality AQ Index Pollutant
Not available.

Snow Depth

Station Depth Elevation

Earthquake Activity

City Distance Mag. Time & Date
Minimum magnitude displayed is 2.5.

Coastal Water Temperatures

Place Temperature

Stations

Nearby Weather Stations

Station Location Temp. Windchill Dew Point Humidity Wind Precip. Elev Updated Type